createdAt,value
2018-07-05T00:00:26.488Z,0
2018-07-05T00:01:31.902Z,0
2018-07-05T00:02:37.304Z,0
2018-07-05T00:03:42.709Z,0
2018-07-05T00:04:48.114Z,0
2018-07-05T00:05:53.538Z,0
2018-07-05T00:06:58.938Z,0
2018-07-05T00:08:04.359Z,0
2018-07-05T00:09:09.767Z,0
2018-07-05T00:10:15.173Z,0
2018-07-05T00:11:20.587Z,0
2018-07-05T00:12:25.994Z,0
2018-07-05T00:13:31.396Z,0
2018-07-05T00:14:36.803Z,0
2018-07-05T00:15:42.205Z,0
2018-07-05T00:16:47.619Z,0
2018-07-05T00:17:53.022Z,0
2018-07-05T00:18:58.425Z,0
2018-07-05T00:20:03.829Z,0
2018-07-05T00:21:09.242Z,0
2018-07-05T00:22:15.641Z,0
2018-07-05T00:23:21.041Z,0
2018-07-05T00:24:26.446Z,0
2018-07-05T00:25:31.854Z,0
2018-07-05T00:26:37.273Z,0
2018-07-05T00:27:42.683Z,0
2018-07-05T00:28:48.088Z,0
2018-07-05T00:29:53.494Z,0
2018-07-05T00:30:58.896Z,0
2018-07-05T00:32:04.308Z,0
2018-07-05T00:33:09.719Z,0
2018-07-05T00:34:16.114Z,0
2018-07-05T00:35:21.520Z,0
2018-07-05T00:36:26.937Z,0
2018-07-05T00:37:32.340Z,0
2018-07-05T00:38:37.744Z,0
2018-07-05T00:39:43.147Z,0
2018-07-05T00:40:48.560Z,0
2018-07-05T00:41:53.974Z,0
2018-07-05T00:42:59.388Z,0
2018-07-05T00:44:04.790Z,0
2018-07-05T00:45:10.205Z,0
2018-07-05T00:46:15.607Z,0
2018-07-05T00:47:21.018Z,0
2018-07-05T00:48:26.424Z,0
2018-07-05T00:49:31.829Z,0
2018-07-05T00:50:37.230Z,0
2018-07-05T00:51:42.643Z,0
2018-07-05T00:52:48.050Z,0
2018-07-05T00:53:53.456Z,0
2018-07-05T00:54:58.861Z,0
2018-07-05T00:56:04.262Z,0
2018-07-05T00:57:09.676Z,0
2018-07-05T00:58:15.080Z,0
2018-07-05T00:59:20.486Z,0
2018-07-05T01:00:25.892Z,0
2018-07-05T01:01:31.297Z,0
2018-07-05T01:02:36.716Z,0
2018-07-05T01:03:42.124Z,0
2018-07-05T01:04:47.527Z,0
2018-07-05T01:05:52.934Z,0
2018-07-05T01:06:58.350Z,0
2018-07-05T01:08:03.754Z,0
2018-07-05T01:09:09.157Z,0
2018-07-05T01:10:14.560Z,0
2018-07-05T01:11:19.963Z,0
2018-07-05T01:12:25.377Z,0
2018-07-05T01:13:30.780Z,0
2018-07-05T01:14:36.183Z,0
2018-07-05T01:15:41.586Z,0
2018-07-05T01:16:46.991Z,0
2018-07-05T01:17:52.403Z,0
2018-07-05T01:18:57.806Z,0
2018-07-05T01:20:03.209Z,0
2018-07-05T01:21:08.613Z,0
2018-07-05T01:22:14.029Z,0
2018-07-05T01:23:19.441Z,0
2018-07-05T01:24:24.842Z,0
2018-07-05T01:25:30.250Z,0
2018-07-05T01:26:35.647Z,0
2018-07-05T01:27:41.058Z,0
2018-07-05T01:28:46.463Z,0
2018-07-05T01:29:51.866Z,0
2018-07-05T01:30:57.269Z,0
2018-07-05T01:32:02.675Z,0
2018-07-05T01:33:08.092Z,0
2018-07-05T01:34:13.497Z,0
2018-07-05T01:35:18.902Z,0
2018-07-05T01:36:24.307Z,0
2018-07-05T01:37:29.721Z,0
2018-07-05T01:38:35.125Z,0
2018-07-05T01:39:40.528Z,0
2018-07-05T01:40:45.932Z,0
2018-07-05T01:41:51.336Z,0
2018-07-05T01:42:57.741Z,0
2018-07-05T01:44:03.145Z,0
2018-07-05T01:45:08.548Z,0
2018-07-05T01:46:13.952Z,0
2018-07-05T01:47:19.360Z,0
2018-07-05T01:48:24.780Z,0
2018-07-05T01:49:30.185Z,0
2018-07-05T01:50:35.591Z,0
2018-07-05T01:51:40.998Z,0
2018-07-05T01:52:46.414Z,0
2018-07-05T01:53:51.821Z,0
2018-07-05T01:54:57.220Z,0
2018-07-05T01:56:02.625Z,0
2018-07-05T01:57:08.034Z,0
2018-07-05T01:58:13.449Z,0
2018-07-05T01:59:18.855Z,0
2018-07-05T02:00:24.256Z,0
2018-07-05T02:01:29.661Z,0
2018-07-05T02:02:35.067Z,0
2018-07-05T02:03:40.491Z,0
2018-07-05T02:04:45.897Z,0
2018-07-05T02:05:51.298Z,0
2018-07-05T02:06:56.701Z,0
2018-07-05T02:08:02.116Z,0
2018-07-05T02:09:07.519Z,0
2018-07-05T02:10:12.921Z,0
2018-07-05T02:11:19.316Z,0
2018-07-05T02:12:24.718Z,0
2018-07-05T02:13:30.131Z,0
2018-07-05T02:14:35.597Z,0
2018-07-05T02:15:40.945Z,0
2018-07-05T02:16:46.353Z,0
2018-07-05T02:17:51.778Z,0
2018-07-05T02:18:57.180Z,0
2018-07-05T02:20:02.585Z,0
2018-07-05T02:21:07.990Z,0
2018-07-05T02:22:13.406Z,0
2018-07-05T02:23:18.817Z,0
2018-07-05T02:24:24.218Z,0
2018-07-05T02:25:29.622Z,0
2018-07-05T02:26:35.030Z,0
2018-07-05T02:27:40.438Z,0
2018-07-05T02:28:45.853Z,0
2018-07-05T02:29:51.260Z,0
2018-07-05T02:30:56.664Z,0
2018-07-05T02:32:02.068Z,1
2018-07-05T02:33:07.473Z,0
2018-07-05T02:34:12.886Z,0
2018-07-05T02:35:18.287Z,0
2018-07-05T02:36:23.692Z,1
2018-07-05T02:37:29.099Z,1
2018-07-05T02:38:34.515Z,0
2018-07-05T02:39:39.921Z,1
2018-07-05T02:40:45.328Z,1
2018-07-05T02:41:50.725Z,1
2018-07-05T02:42:56.130Z,1
2018-07-05T02:44:01.543Z,1
2018-07-05T02:45:06.949Z,1
2018-07-05T02:46:12.355Z,2
2018-07-05T02:47:17.754Z,2
2018-07-05T02:48:23.157Z,2
2018-07-05T02:49:28.572Z,2
2018-07-05T02:50:33.981Z,2
2018-07-05T02:51:39.378Z,3
2018-07-05T02:52:44.783Z,4
2018-07-05T02:53:50.198Z,3
2018-07-05T02:54:55.605Z,4
2018-07-05T02:56:01.010Z,4
2018-07-05T02:57:06.415Z,5
2018-07-05T02:58:11.822Z,5
2018-07-05T02:59:17.242Z,6
2018-07-05T03:00:23.641Z,7
2018-07-05T03:01:29.044Z,8
2018-07-05T03:02:34.444Z,9
2018-07-05T03:03:39.856Z,10
2018-07-05T03:04:45.269Z,11
2018-07-05T03:05:50.693Z,12
2018-07-05T03:06:56.094Z,14
2018-07-05T03:08:01.496Z,15
2018-07-05T03:09:06.913Z,16
2018-07-05T03:10:12.313Z,18
2018-07-05T03:11:17.720Z,19
2018-07-05T03:12:24.124Z,21
2018-07-05T03:13:29.545Z,23
2018-07-05T03:14:34.942Z,25
2018-07-05T03:15:40.348Z,27
2018-07-05T03:16:45.754Z,29
2018-07-05T03:17:51.168Z,31
2018-07-05T03:18:56.573Z,34
2018-07-05T03:20:01.995Z,36
2018-07-05T03:21:07.403Z,38
2018-07-05T03:22:12.795Z,41
2018-07-05T03:23:18.200Z,43
2018-07-05T03:24:23.618Z,46
2018-07-05T03:25:29.024Z,49
2018-07-05T03:26:34.432Z,51
2018-07-05T03:27:39.839Z,54
2018-07-05T03:28:45.254Z,58
2018-07-05T03:29:50.675Z,60
2018-07-05T03:30:56.077Z,63
2018-07-05T03:32:01.479Z,66
2018-07-05T03:33:06.884Z,69
2018-07-05T03:34:12.289Z,72
2018-07-05T03:35:17.729Z,76
2018-07-05T03:36:23.137Z,79
2018-07-05T03:37:28.542Z,83
2018-07-05T03:38:33.948Z,87
2018-07-05T03:39:39.365Z,91
2018-07-05T03:40:44.794Z,95
2018-07-05T03:41:50.175Z,98
2018-07-05T03:42:55.583Z,101
2018-07-05T03:44:00.990Z,105
2018-07-05T03:45:06.404Z,109
2018-07-05T03:46:11.809Z,112
2018-07-05T03:47:17.213Z,115
2018-07-05T03:48:22.623Z,118
2018-07-05T03:49:28.018Z,122
2018-07-05T03:50:34.424Z,125
2018-07-05T03:51:39.905Z,129
2018-07-05T03:52:45.232Z,133
2018-07-05T03:53:50.636Z,137
2018-07-05T03:54:56.039Z,140
2018-07-05T03:56:01.454Z,144
2018-07-05T03:57:06.861Z,147
2018-07-05T03:58:12.276Z,150
2018-07-05T03:59:17.673Z,153
2018-07-05T04:00:23.083Z,155
2018-07-05T04:01:28.490Z,157
2018-07-05T04:02:33.941Z,160
2018-07-05T04:03:39.302Z,162
2018-07-05T04:04:44.707Z,165
2018-07-05T04:05:50.119Z,168
2018-07-05T04:06:55.524Z,171
2018-07-05T04:08:00.929Z,175
2018-07-05T04:09:06.335Z,180
2018-07-05T04:10:11.741Z,186
2018-07-05T04:11:17.155Z,193
2018-07-05T04:12:22.579Z,199
2018-07-05T04:13:27.990Z,204
2018-07-05T04:14:33.389Z,210
2018-07-05T04:15:38.793Z,215
2018-07-05T04:16:44.232Z,220
2018-07-05T04:17:49.641Z,225
2018-07-05T04:18:55.048Z,230
2018-07-05T04:20:00.458Z,234
2018-07-05T04:21:05.882Z,239
2018-07-05T04:22:11.288Z,243
2018-07-05T04:23:16.689Z,246
2018-07-05T04:24:22.095Z,251
2018-07-05T04:25:27.511Z,252
2018-07-05T04:26:32.919Z,255
2018-07-05T04:27:38.325Z,260
2018-07-05T04:28:43.731Z,264
2018-07-05T04:29:49.141Z,267
2018-07-05T04:30:54.547Z,271
2018-07-05T04:31:59.960Z,274
2018-07-05T04:33:05.365Z,279
2018-07-05T04:34:10.791Z,282
2018-07-05T04:35:16.173Z,284
2018-07-05T04:36:21.587Z,286
2018-07-05T04:37:26.991Z,289
2018-07-05T04:38:32.395Z,290
2018-07-05T04:39:37.799Z,293
2018-07-05T04:40:43.203Z,294
2018-07-05T04:41:48.618Z,298
2018-07-05T04:42:55.020Z,300
2018-07-05T04:44:00.424Z,304
2018-07-05T04:45:05.826Z,305
2018-07-05T04:46:11.234Z,307
2018-07-05T04:47:16.654Z,310
2018-07-05T04:48:22.057Z,314
2018-07-05T04:49:27.467Z,316
2018-07-05T04:50:32.868Z,319
2018-07-05T04:51:38.286Z,321
2018-07-05T04:52:43.693Z,323
2018-07-05T04:53:50.112Z,326
2018-07-05T04:54:55.501Z,327
2018-07-05T04:56:00.903Z,331
2018-07-05T04:57:06.314Z,333
2018-07-05T04:58:11.718Z,335
2018-07-05T04:59:17.127Z,338
2018-07-05T05:00:22.534Z,340
2018-07-05T05:01:27.932Z,344
2018-07-05T05:02:33.347Z,347
2018-07-05T05:03:38.750Z,352
2018-07-05T05:04:44.161Z,358
2018-07-05T05:05:49.566Z,362
2018-07-05T05:06:54.976Z,369
2018-07-05T05:08:00.385Z,375
2018-07-05T05:09:05.795Z,380
2018-07-05T05:10:11.223Z,384
2018-07-05T05:11:16.630Z,391
2018-07-05T05:12:22.056Z,397
2018-07-05T05:13:27.469Z,398
2018-07-05T05:14:32.877Z,400
2018-07-05T05:15:38.278Z,404
2018-07-05T05:16:43.686Z,411
2018-07-05T05:17:49.102Z,414
2018-07-05T05:18:54.509Z,417
2018-07-05T05:19:59.910Z,420
2018-07-05T05:21:05.325Z,425
2018-07-05T05:22:10.726Z,430
2018-07-05T05:23:16.147Z,434
2018-07-05T05:24:21.558Z,438
2018-07-05T05:25:26.971Z,440
2018-07-05T05:26:32.403Z,443
2018-07-05T05:27:37.813Z,443
2018-07-05T05:28:43.226Z,444
2018-07-05T05:29:48.631Z,444
2018-07-05T05:30:55.029Z,444
2018-07-05T05:32:00.430Z,439
2018-07-05T05:33:05.857Z,436
2018-07-05T05:34:12.251Z,431
2018-07-05T05:35:17.653Z,424
2018-07-05T05:36:23.059Z,418
2018-07-05T05:37:28.461Z,414
2018-07-05T05:38:33.874Z,410
2018-07-05T05:39:39.279Z,407
2018-07-05T05:40:44.683Z,414
2018-07-05T05:41:50.089Z,418
2018-07-05T05:42:56.484Z,425
2018-07-05T05:44:01.904Z,435
2018-07-05T05:45:07.315Z,445
2018-07-05T05:46:12.731Z,457
2018-07-05T05:47:18.136Z,457
2018-07-05T05:48:23.542Z,461
2018-07-05T05:49:28.974Z,455
2018-07-05T05:50:34.374Z,450
2018-07-05T05:51:39.784Z,447
2018-07-05T05:52:45.195Z,443
2018-07-05T05:53:50.608Z,435
2018-07-05T05:54:56.016Z,428
2018-07-05T05:56:01.423Z,422
2018-07-05T05:57:06.826Z,416
2018-07-05T05:58:13.221Z,410
2018-07-05T05:59:18.639Z,402
2018-07-05T06:00:24.048Z,402
2018-07-05T06:01:29.459Z,403
2018-07-05T06:02:34.862Z,401
2018-07-05T06:03:40.265Z,401
2018-07-05T06:04:45.680Z,404
2018-07-05T06:05:51.086Z,408
2018-07-05T06:06:56.496Z,412
2018-07-05T06:08:01.947Z,416
2018-07-05T06:09:07.303Z,419
2018-07-05T06:10:12.720Z,420
2018-07-05T06:11:18.121Z,420
2018-07-05T06:12:23.546Z,419
2018-07-05T06:13:28.951Z,418
2018-07-05T06:14:34.371Z,419
2018-07-05T06:15:39.783Z,422
2018-07-05T06:16:45.188Z,422
2018-07-05T06:17:50.597Z,421
2018-07-05T06:18:56.021Z,420
2018-07-05T06:20:01.417Z,422
2018-07-05T06:21:06.822Z,421
2018-07-05T06:22:12.222Z,419
2018-07-05T06:23:17.628Z,420
2018-07-05T06:24:23.038Z,421
2018-07-05T06:25:28.526Z,424
2018-07-05T06:26:33.862Z,426
2018-07-05T06:27:39.267Z,426
2018-07-05T06:28:44.673Z,426
2018-07-05T06:29:50.087Z,429
2018-07-05T06:30:55.491Z,430
2018-07-05T06:32:00.898Z,432
2018-07-05T06:33:06.304Z,436
2018-07-05T06:34:11.777Z,438
2018-07-05T06:35:17.127Z,439
2018-07-05T06:36:22.540Z,442
2018-07-05T06:37:27.939Z,446
2018-07-05T06:38:33.343Z,449
2018-07-05T06:39:38.817Z,455
2018-07-05T06:40:44.181Z,459
2018-07-05T06:41:49.562Z,460
2018-07-05T06:42:54.972Z,455
2018-07-05T06:44:00.377Z,453
2018-07-05T06:45:05.791Z,456
2018-07-05T06:46:11.198Z,459
2018-07-05T06:47:16.603Z,462
2018-07-05T06:48:22.004Z,460
2018-07-05T06:49:27.591Z,457
2018-07-05T06:50:32.821Z,457
2018-07-05T06:51:38.224Z,455
2018-07-05T06:52:43.630Z,456
2018-07-05T06:53:49.042Z,459
2018-07-05T06:54:54.446Z,458
2018-07-05T06:55:59.861Z,460
2018-07-05T06:57:05.267Z,458
2018-07-05T06:58:10.684Z,461
2018-07-05T06:59:16.131Z,463
2018-07-05T07:00:21.506Z,468
2018-07-05T07:01:26.909Z,471
2018-07-05T07:02:32.322Z,475
2018-07-05T07:03:37.728Z,475
2018-07-05T07:04:43.133Z,475
2018-07-05T07:05:49.534Z,476
2018-07-05T07:06:54.940Z,474
2018-07-05T07:08:00.393Z,476
2018-07-05T07:09:05.748Z,478
2018-07-05T07:10:11.155Z,478
2018-07-05T07:11:16.569Z,479
2018-07-05T07:12:21.978Z,482
2018-07-05T07:13:27.389Z,487
2018-07-05T07:14:32.790Z,490
2018-07-05T07:15:38.207Z,492
2018-07-05T07:16:43.611Z,493
2018-07-05T07:17:49.023Z,495
2018-07-05T07:18:54.426Z,495
2018-07-05T07:19:59.827Z,496
2018-07-05T07:21:06.229Z,497
2018-07-05T07:22:11.634Z,496
2018-07-05T07:23:17.044Z,499
2018-07-05T07:24:22.448Z,498
2018-07-05T07:25:27.859Z,497
2018-07-05T07:26:33.278Z,495
2018-07-05T07:27:38.683Z,495
2018-07-05T07:28:44.090Z,496
2018-07-05T07:29:49.498Z,497
2018-07-05T07:30:54.910Z,498
2018-07-05T07:32:01.350Z,500
2018-07-05T07:33:07.717Z,500
2018-07-05T07:34:13.112Z,500
2018-07-05T07:35:18.516Z,500
2018-07-05T07:36:23.936Z,498
2018-07-05T07:37:29.367Z,496
2018-07-05T07:38:35.012Z,496
2018-07-05T07:39:41.414Z,496
2018-07-05T07:40:46.824Z,498
2018-07-05T07:41:52.242Z,500
2018-07-05T07:42:57.641Z,506
2018-07-05T07:44:03.049Z,511
2018-07-05T07:45:08.455Z,511
2018-07-05T07:46:13.869Z,512
2018-07-05T07:47:19.275Z,513
2018-07-05T07:48:24.684Z,513
2018-07-05T07:49:30.092Z,513
2018-07-05T07:50:35.500Z,514
2018-07-05T07:51:40.908Z,512
2018-07-05T07:52:46.314Z,512
2018-07-05T07:53:51.723Z,510
2018-07-05T07:54:57.134Z,511
2018-07-05T07:56:02.537Z,510
2018-07-05T07:57:07.960Z,510
2018-07-05T07:58:13.381Z,514
2018-07-05T07:59:18.778Z,510
2018-07-05T08:00:24.183Z,510
2018-07-05T08:01:29.611Z,509
2018-07-05T08:02:35.012Z,509
2018-07-05T08:03:40.424Z,510
2018-07-05T08:04:45.825Z,514
2018-07-05T08:05:51.229Z,509
2018-07-05T08:06:56.649Z,507
2018-07-05T08:08:02.126Z,510
2018-07-05T08:09:07.474Z,513
2018-07-05T08:10:12.878Z,515
2018-07-05T08:11:18.289Z,516
2018-07-05T08:12:23.706Z,520
2018-07-05T08:13:30.096Z,524
2018-07-05T08:14:35.500Z,525
2018-07-05T08:15:40.914Z,527
2018-07-05T08:16:46.336Z,520
2018-07-05T08:17:51.744Z,533
2018-07-05T08:18:57.161Z,540
2018-07-05T08:20:02.582Z,547
2018-07-05T08:21:07.986Z,553
2018-07-05T08:22:13.403Z,562
2018-07-05T08:23:18.811Z,575
2018-07-05T08:24:25.203Z,584
2018-07-05T08:25:30.605Z,595
2018-07-05T08:26:36.010Z,608
2018-07-05T08:27:41.425Z,625
2018-07-05T08:28:46.830Z,642
2018-07-05T08:29:52.233Z,667
2018-07-05T08:30:57.641Z,705
2018-07-05T08:32:03.054Z,738
2018-07-05T08:33:08.458Z,759
2018-07-05T08:34:13.861Z,752
2018-07-05T08:35:19.267Z,773
2018-07-05T08:36:24.680Z,801
2018-07-05T08:37:30.096Z,823
2018-07-05T08:38:35.507Z,852
2018-07-05T08:39:40.910Z,900
2018-07-05T08:40:46.317Z,931
2018-07-05T08:41:51.733Z,927
2018-07-05T08:42:57.147Z,907
2018-07-05T08:44:02.552Z,872
2018-07-05T08:45:07.975Z,848
2018-07-05T08:46:13.382Z,844
2018-07-05T08:47:18.809Z,842
2018-07-05T08:48:24.215Z,824
2018-07-05T08:49:29.626Z,795
2018-07-05T08:50:35.031Z,775
2018-07-05T08:51:40.436Z,785
2018-07-05T08:52:45.857Z,792
2018-07-05T08:53:51.269Z,782
2018-07-05T08:54:56.674Z,773
2018-07-05T08:56:02.094Z,750
2018-07-05T08:57:07.486Z,724
2018-07-05T08:58:12.962Z,707
2018-07-05T08:59:19.304Z,691
2018-07-05T09:00:25.705Z,691
2018-07-05T09:01:32.106Z,700
2018-07-05T09:02:37.522Z,708
2018-07-05T09:03:42.926Z,718
2018-07-05T09:04:48.333Z,724
2018-07-05T09:05:53.740Z,727
2018-07-05T09:06:59.144Z,728
2018-07-05T09:08:04.561Z,733
2018-07-05T09:09:09.973Z,744
2018-07-05T09:10:15.378Z,756
2018-07-05T09:11:20.787Z,764
2018-07-05T09:12:26.193Z,768
2018-07-05T09:13:31.607Z,775
2018-07-05T09:14:37.013Z,784
2018-07-05T09:15:42.418Z,801
2018-07-05T09:16:47.825Z,815
2018-07-05T09:17:53.459Z,827
2018-07-05T09:18:58.656Z,826
2018-07-05T09:20:04.060Z,819
2018-07-05T09:21:09.469Z,809
2018-07-05T09:22:14.884Z,793
2018-07-05T09:23:20.433Z,776
2018-07-05T09:24:25.763Z,806
2018-07-05T09:25:31.163Z,806
2018-07-05T09:26:36.575Z,799
2018-07-05T09:27:41.987Z,802
2018-07-05T09:28:47.407Z,808
2018-07-05T09:29:52.812Z,857
2018-07-05T09:30:58.222Z,921
2018-07-05T09:32:04.625Z,950
2018-07-05T09:33:10.039Z,952
2018-07-05T09:34:15.448Z,922
2018-07-05T09:35:20.854Z,883
2018-07-05T09:36:26.265Z,873
2018-07-05T09:37:31.722Z,856
2018-07-05T09:38:37.160Z,863
2018-07-05T09:39:42.566Z,854
2018-07-05T09:40:47.972Z,831
2018-07-05T09:41:53.378Z,821
2018-07-05T09:42:58.793Z,826
2018-07-05T09:44:04.196Z,863
2018-07-05T09:45:09.605Z,878
2018-07-05T09:46:15.015Z,861
2018-07-05T09:47:21.411Z,860
2018-07-05T09:48:26.823Z,856
2018-07-05T09:49:32.229Z,846
2018-07-05T09:50:37.636Z,850
2018-07-05T09:51:44.036Z,853
2018-07-05T09:52:50.534Z,827
2018-07-05T09:53:55.869Z,833
2018-07-05T09:55:02.257Z,869
2018-07-05T09:56:08.658Z,877
2018-07-05T09:57:14.065Z,911
2018-07-05T09:58:19.481Z,916
2018-07-05T09:59:24.891Z,908
2018-07-05T10:00:30.299Z,906
2018-07-05T10:01:35.706Z,886
2018-07-05T10:02:41.115Z,868
2018-07-05T10:03:46.620Z,871
2018-07-05T10:04:51.939Z,863
2018-07-05T10:05:57.346Z,861
2018-07-05T10:07:02.761Z,859
2018-07-05T10:08:08.176Z,854
2018-07-05T10:09:14.575Z,862
2018-07-05T10:10:19.982Z,873
2018-07-05T10:11:25.388Z,877
2018-07-05T10:12:30.800Z,889
2018-07-05T10:13:36.502Z,896
2018-07-05T10:14:41.636Z,901
2018-07-05T10:15:47.045Z,899
2018-07-05T10:16:53.444Z,889
2018-07-05T10:17:58.851Z,876
2018-07-05T10:19:04.266Z,865
2018-07-05T10:20:09.669Z,869
2018-07-05T10:21:15.076Z,876
2018-07-05T10:22:20.494Z,880
2018-07-05T10:23:25.907Z,893
2018-07-05T10:24:31.310Z,896
2018-07-05T10:25:36.716Z,899
2018-07-05T10:26:43.161Z,892
2018-07-05T10:27:49.513Z,868
2018-07-05T10:28:54.926Z,868
2018-07-05T10:30:00.331Z,872
2018-07-05T10:31:05.737Z,888
2018-07-05T10:32:11.141Z,905
2018-07-05T10:33:16.542Z,903
2018-07-05T10:34:21.967Z,892
2018-07-05T10:35:27.372Z,877
2018-07-05T10:36:32.784Z,883
2018-07-05T10:37:38.206Z,901
2018-07-05T10:38:43.767Z,905
2018-07-05T10:39:49.171Z,892
2018-07-05T10:40:54.576Z,871
2018-07-05T10:41:59.987Z,879
2018-07-05T10:43:05.396Z,893
2018-07-05T10:44:10.813Z,909
2018-07-05T10:45:16.220Z,940
2018-07-05T10:46:21.633Z,963
2018-07-05T10:47:27.045Z,968
2018-07-05T10:48:32.502Z,951
2018-07-05T10:49:37.910Z,932
2018-07-05T10:50:43.322Z,925
2018-07-05T10:51:48.729Z,932
2018-07-05T10:52:54.140Z,951
2018-07-05T10:53:59.562Z,980
2018-07-05T10:55:04.969Z,1021
2018-07-05T10:56:10.377Z,1065
2018-07-05T10:57:15.783Z,1116
2018-07-05T10:58:21.186Z,1164
2018-07-05T10:59:26.607Z,1189
2018-07-05T11:00:32.010Z,1150
2018-07-05T11:01:37.418Z,1147
2018-07-05T11:02:43.812Z,1123
2018-07-05T11:03:49.218Z,1060
2018-07-05T11:04:54.648Z,1034
2018-07-05T11:06:00.054Z,1044
2018-07-05T11:07:05.500Z,1051
2018-07-05T11:08:10.866Z,1106
2018-07-05T11:09:16.288Z,1168
2018-07-05T11:10:21.704Z,1188
2018-07-05T11:11:27.110Z,1178
2018-07-05T11:12:32.514Z,1118
2018-07-05T11:13:37.919Z,1085
2018-07-05T11:14:43.341Z,1056
2018-07-05T11:15:49.736Z,1046
2018-07-05T11:16:55.146Z,1023
2018-07-05T11:18:00.557Z,1008
2018-07-05T11:19:05.992Z,1008
2018-07-05T11:20:11.400Z,1018
2018-07-05T11:21:17.806Z,1020
2018-07-05T11:22:23.204Z,1027
2018-07-05T11:23:28.625Z,1042
2018-07-05T11:24:34.041Z,1070
2018-07-05T11:25:39.447Z,1068
2018-07-05T11:26:44.851Z,1109
2018-07-05T11:27:50.256Z,1134
2018-07-05T11:28:55.669Z,1129
2018-07-05T11:30:01.089Z,1107
2018-07-05T11:31:06.494Z,1120
2018-07-05T11:32:11.904Z,1123
2018-07-05T11:33:17.310Z,1118
2018-07-05T11:34:22.727Z,1123
2018-07-05T11:35:28.134Z,1122
2018-07-05T11:36:33.584Z,1111
2018-07-05T11:37:38.987Z,1126
2018-07-05T11:38:44.398Z,1120
2018-07-05T11:39:49.814Z,1149
2018-07-05T11:40:55.223Z,1165
2018-07-05T11:42:00.633Z,1175
2018-07-05T11:43:06.052Z,1195
2018-07-05T11:44:11.463Z,1218
2018-07-05T11:45:16.881Z,1247
2018-07-05T11:46:22.282Z,1268
2018-07-05T11:47:27.689Z,1283
2018-07-05T11:48:33.096Z,1281
2018-07-05T11:49:38.504Z,1263
2018-07-05T11:50:43.917Z,1254
2018-07-05T11:51:49.319Z,1228
2018-07-05T11:52:54.753Z,1217
2018-07-05T11:54:00.171Z,1217
2018-07-05T11:55:05.610Z,1230
2018-07-05T11:56:11.018Z,1251
2018-07-05T11:57:16.431Z,1222
2018-07-05T11:58:21.834Z,1166
2018-07-05T11:59:27.243Z,1103
2018-07-05T12:00:32.666Z,1066
2018-07-05T12:01:38.078Z,1022
2018-07-05T12:02:43.489Z,1017
2018-07-05T12:03:48.889Z,1025
2018-07-05T12:04:54.294Z,1029
2018-07-05T12:05:59.712Z,1037
2018-07-05T12:07:05.122Z,1039
2018-07-05T12:08:10.525Z,1050
2018-07-05T12:09:15.935Z,1085
2018-07-05T12:10:21.376Z,1127
2018-07-05T12:11:26.805Z,1183
2018-07-05T12:12:32.212Z,1230
2018-07-05T12:13:37.628Z,1230
2018-07-05T12:14:43.046Z,1178
2018-07-05T12:15:48.455Z,1132
2018-07-05T12:16:53.891Z,1100
2018-07-05T12:18:00.286Z,1089
2018-07-05T12:19:05.699Z,1076
2018-07-05T12:20:11.103Z,1063
2018-07-05T12:21:17.509Z,1064
2018-07-05T12:22:22.922Z,1066
2018-07-05T12:23:28.327Z,1071
2018-07-05T12:24:33.733Z,1078
2018-07-05T12:25:39.140Z,1080
2018-07-05T12:26:44.566Z,1080
2018-07-05T12:27:49.974Z,1086
2018-07-05T12:28:55.382Z,1083
2018-07-05T12:30:00.790Z,1058
2018-07-05T12:31:06.225Z,1038
2018-07-05T12:32:11.631Z,1060
2018-07-05T12:33:17.036Z,1076
2018-07-05T12:34:23.435Z,1082
2018-07-05T12:35:28.845Z,1088
2018-07-05T12:36:35.255Z,1097
2018-07-05T12:37:40.663Z,1102
2018-07-05T12:38:46.071Z,1092
2018-07-05T12:39:51.483Z,1085
2018-07-05T12:40:56.885Z,1095
2018-07-05T12:42:02.306Z,1103
2018-07-05T12:43:07.718Z,1124
2018-07-05T12:44:13.123Z,1145
2018-07-05T12:45:18.529Z,1173
2018-07-05T12:46:23.956Z,1203
2018-07-05T12:47:29.363Z,1204
2018-07-05T12:48:34.769Z,1211
2018-07-05T12:49:40.172Z,1219
2018-07-05T12:50:46.570Z,1267
2018-07-05T12:51:52.019Z,1264
2018-07-05T12:52:57.390Z,1252
2018-07-05T12:54:02.794Z,1244
2018-07-05T12:55:08.204Z,1242
2018-07-05T12:56:13.609Z,1243
2018-07-05T12:57:19.025Z,1250
2018-07-05T12:58:24.431Z,1261
2018-07-05T12:59:29.831Z,1261
2018-07-05T13:00:35.236Z,1253
2018-07-05T13:01:40.644Z,1251
2018-07-05T13:02:47.056Z,1255
2018-07-05T13:03:52.467Z,1258
2018-07-05T13:04:57.869Z,1257
2018-07-05T13:06:03.279Z,1250
2018-07-05T13:07:08.692Z,1252
2018-07-05T13:08:14.097Z,1257
2018-07-05T13:09:19.501Z,1259
2018-07-05T13:10:24.899Z,1253
2018-07-05T13:11:30.306Z,1252
2018-07-05T13:12:35.721Z,1264
2018-07-05T13:13:41.126Z,1268
2018-07-05T13:14:46.535Z,1247
2018-07-05T13:15:51.982Z,1225
2018-07-05T13:16:57.409Z,1208
2018-07-05T13:18:02.820Z,1191
2018-07-05T13:19:08.230Z,1192
2018-07-05T13:20:13.632Z,1206
2018-07-05T13:21:19.048Z,1217
2018-07-05T13:22:24.465Z,1207
2018-07-05T13:23:29.872Z,1205
2018-07-05T13:24:35.275Z,1196
2018-07-05T13:25:40.677Z,1191
2018-07-05T13:26:46.084Z,1198
2018-07-05T13:27:51.502Z,1189
2018-07-05T13:28:56.903Z,1182
2018-07-05T13:30:02.308Z,1171
2018-07-05T13:31:07.717Z,1168
2018-07-05T13:32:13.145Z,1177
2018-07-05T13:33:18.583Z,1181
2018-07-05T13:34:23.983Z,1173
2018-07-05T13:35:29.389Z,1165
2018-07-05T13:36:34.795Z,1161
2018-07-05T13:37:40.216Z,1158
2018-07-05T13:38:45.621Z,1153
2018-07-05T13:39:51.033Z,1150
2018-07-05T13:40:57.419Z,1153
2018-07-05T13:42:02.845Z,1145
2018-07-05T13:43:08.259Z,1134
2018-07-05T13:44:13.674Z,1120
2018-07-05T13:45:19.107Z,1110
2018-07-05T13:46:24.486Z,1096
2018-07-05T13:47:29.892Z,1083
2018-07-05T13:48:35.312Z,1084
2018-07-05T13:49:40.710Z,1091
2018-07-05T13:50:46.122Z,1108
2018-07-05T13:51:51.523Z,1125
2018-07-05T13:52:56.938Z,1123
2018-07-05T13:54:02.420Z,1115
2018-07-05T13:55:07.756Z,1119
2018-07-05T13:56:13.180Z,1126
2018-07-05T13:57:18.580Z,1133
2018-07-05T13:58:23.998Z,1131
2018-07-05T13:59:29.409Z,1114
2018-07-05T14:00:34.816Z,1114
2018-07-05T14:01:40.223Z,1126
2018-07-05T14:02:45.628Z,1144
2018-07-05T14:03:51.043Z,1156
2018-07-05T14:04:56.444Z,1165
2018-07-05T14:06:02.846Z,1174
2018-07-05T14:07:08.250Z,1167
2018-07-05T14:08:13.669Z,1162
2018-07-05T14:09:19.070Z,1160
2018-07-05T14:10:24.476Z,1157
2018-07-05T14:11:29.882Z,1155
2018-07-05T14:12:35.288Z,1152
2018-07-05T14:13:40.703Z,1156
2018-07-05T14:14:47.104Z,1156
2018-07-05T14:15:52.511Z,1161
2018-07-05T14:16:57.921Z,1168
2018-07-05T14:18:03.327Z,1185
2018-07-05T14:19:08.743Z,1189
2018-07-05T14:20:14.147Z,1192
2018-07-05T14:21:19.555Z,1208
2018-07-05T14:22:24.962Z,1223
2018-07-05T14:23:30.382Z,1243
2018-07-05T14:24:35.827Z,1267
2018-07-05T14:25:41.195Z,1312
2018-07-05T14:26:46.605Z,1368
2018-07-05T14:27:52.008Z,1400
2018-07-05T14:28:57.423Z,1384
2018-07-05T14:30:02.835Z,1384
2018-07-05T14:31:08.249Z,1407
2018-07-05T14:32:13.657Z,1450
2018-07-05T14:33:19.067Z,1499
2018-07-05T14:34:24.477Z,1569
2018-07-05T14:35:30.875Z,1625
2018-07-05T14:36:36.285Z,1706
2018-07-05T14:37:41.687Z,1882
2018-07-05T14:38:47.103Z,1815
2018-07-05T14:39:52.508Z,1538
2018-07-05T14:40:57.910Z,2065
2018-07-05T14:42:03.318Z,2077
2018-07-05T14:43:08.727Z,2003
2018-07-05T14:44:14.146Z,2182
2018-07-05T14:45:19.556Z,2604
2018-07-05T14:46:24.964Z,3228
2018-07-05T14:47:30.370Z,3863
2018-07-05T14:48:35.787Z,2575
2018-07-05T14:49:41.206Z,5297
2018-07-05T14:50:46.613Z,3778
2018-07-05T14:51:53.007Z,5862
2018-07-05T14:52:58.415Z,7781
2018-07-05T14:54:03.829Z,5494
2018-07-05T14:55:09.234Z,8199
2018-07-05T14:56:14.635Z,8135
2018-07-05T14:57:20.047Z,7741
2018-07-05T14:58:25.451Z,7537
2018-07-05T14:59:30.870Z,7584
2018-07-05T15:00:36.272Z,7822
2018-07-05T15:01:41.677Z,7892
2018-07-05T15:02:47.094Z,7981
2018-07-05T15:03:52.495Z,7997
2018-07-05T15:04:57.914Z,8419
2018-07-05T15:06:03.320Z,8873